createdAt,value
2023-10-30T00:02:08.042Z,17.08
2023-10-30T00:04:35.362Z,17.10
2023-10-30T00:07:03.319Z,17.11
2023-10-30T00:09:30.727Z,17.13
2023-10-30T00:11:57.780Z,17.13
2023-10-30T00:14:24.807Z,17.15
2023-10-30T00:16:51.948Z,17.17
2023-10-30T00:19:19.384Z,17.20
2023-10-30T00:21:46.311Z,17.24
2023-10-30T00:24:13.493Z,17.28
2023-10-30T00:26:40.815Z,17.32
2023-10-30T00:29:07.831Z,17.37
2023-10-30T00:31:35.447Z,17.40
2023-10-30T00:34:02.637Z,17.42
2023-10-30T00:36:29.986Z,17.45
2023-10-30T00:38:56.891Z,17.47
2023-10-30T00:41:24.009Z,17.49
2023-10-30T00:43:51.039Z,17.51
2023-10-30T00:46:18.709Z,17.55
2023-10-30T00:48:45.895Z,17.59
2023-10-30T00:51:13.142Z,17.63
2023-10-30T00:53:41.856Z,17.67
2023-10-30T00:56:09.120Z,17.69
2023-10-30T00:58:36.304Z,17.72
2023-10-30T01:01:03.506Z,17.74
2023-10-30T01:03:31.794Z,17.75
2023-10-30T01:06:00.092Z,17.75
2023-10-30T01:08:27.497Z,17.75
2023-10-30T01:10:57.168Z,17.75
2023-10-30T01:13:24.737Z,17.76
2023-10-30T01:15:55.305Z,17.76
2023-10-30T01:18:22.442Z,17.77
2023-10-30T01:20:49.542Z,17.76
2023-10-30T01:23:16.902Z,17.75
2023-10-30T01:25:47.472Z,17.75
2023-10-30T01:28:16.191Z,17.75
2023-10-30T01:30:43.252Z,17.74
2023-10-30T01:33:10.676Z,17.74
2023-10-30T01:35:39.048Z,17.72
2023-10-30T01:38:06.105Z,17.70
2023-10-30T01:40:33.439Z,17.68
2023-10-30T01:43:01.503Z,17.68
2023-10-30T01:45:28.855Z,17.68
2023-10-30T01:47:57.457Z,17.67
2023-10-30T01:50:25.438Z,17.66
2023-10-30T01:52:52.500Z,17.66
2023-10-30T01:55:19.465Z,17.68
2023-10-30T01:57:46.484Z,17.68
2023-10-30T02:00:14.117Z,17.66
2023-10-30T02:02:41.680Z,17.65
2023-10-30T02:05:10.003Z,17.65
2023-10-30T02:07:37.421Z,17.65
2023-10-30T02:10:04.924Z,17.65
2023-10-30T02:12:36.126Z,17.63
2023-10-30T02:15:04.547Z,17.61
2023-10-30T02:17:32.112Z,17.58
2023-10-30T02:19:59.260Z,17.55
2023-10-30T02:22:27.082Z,17.54
2023-10-30T02:24:54.254Z,17.53
2023-10-30T02:27:21.420Z,17.50
2023-10-30T02:29:49.466Z,17.48
2023-10-30T02:32:16.974Z,17.45
2023-10-30T02:34:44.131Z,17.42
2023-10-30T02:37:11.045Z,17.39
2023-10-30T02:39:38.249Z,17.34
2023-10-30T02:42:05.853Z,17.30
2023-10-30T02:44:33.539Z,17.27
2023-10-30T02:47:00.652Z,17.27
2023-10-30T02:49:27.667Z,17.28
2023-10-30T02:51:54.821Z,17.28
2023-10-30T02:54:21.747Z,17.27
2023-10-30T02:56:48.745Z,17.24
2023-10-30T02:59:15.686Z,17.22
2023-10-30T03:01:42.960Z,17.20
2023-10-30T03:04:15.405Z,17.20
2023-10-30T03:06:42.535Z,17.19
2023-10-30T03:09:09.809Z,17.18
2023-10-30T03:11:37.441Z,17.19
2023-10-30T03:14:05.257Z,17.18
2023-10-30T03:16:32.463Z,17.16
2023-10-30T03:18:59.552Z,17.15
2023-10-30T03:21:27.130Z,17.14
2023-10-30T03:23:54.149Z,17.13
2023-10-30T03:26:21.177Z,17.12
2023-10-30T03:28:48.131Z,17.11
2023-10-30T03:31:15.160Z,17.09
2023-10-30T03:33:42.376Z,17.08
2023-10-30T03:36:09.544Z,17.07
2023-10-30T03:38:36.777Z,17.07
2023-10-30T03:41:03.891Z,17.06
2023-10-30T03:43:30.880Z,17.07
2023-10-30T03:45:58.052Z,17.06
2023-10-30T03:48:25.079Z,17.06
2023-10-30T03:50:52.788Z,17.06
2023-10-30T03:53:19.867Z,17.06
2023-10-30T03:55:46.825Z,17.07
2023-10-30T03:58:13.944Z,17.06
2023-10-30T04:00:42.796Z,17.06
2023-10-30T04:03:10.292Z,17.07
2023-10-30T04:05:39.285Z,17.08
2023-10-30T04:08:07.082Z,17.07
2023-10-30T04:10:34.096Z,17.06
2023-10-30T04:13:01.120Z,17.05
2023-10-30T04:15:28.104Z,17.05
2023-10-30T04:17:57.336Z,17.06
2023-10-30T04:20:24.652Z,17.08
2023-10-30T04:22:52.169Z,17.10
2023-10-30T04:25:20.241Z,17.12
2023-10-30T04:27:47.275Z,17.13
2023-10-30T04:30:14.604Z,17.13
2023-10-30T04:32:42.047Z,17.13
2023-10-30T04:35:10.083Z,17.12
2023-10-30T04:37:37.411Z,17.11
2023-10-30T04:40:06.039Z,17.10
2023-10-30T04:42:33.167Z,17.09
2023-10-30T04:45:00.171Z,17.08
2023-10-30T04:47:27.552Z,17.08
2023-10-30T04:49:54.605Z,17.08
2023-10-30T04:52:21.656Z,17.09
2023-10-30T04:54:48.757Z,17.10
2023-10-30T04:57:15.985Z,17.11
2023-10-30T04:59:43.185Z,17.14
2023-10-30T05:02:10.361Z,17.14
2023-10-30T05:04:37.530Z,17.16
2023-10-30T05:07:04.802Z,17.17
2023-10-30T05:09:31.860Z,17.17
2023-10-30T05:11:59.660Z,17.19
2023-10-30T05:14:28.230Z,17.20
2023-10-30T05:16:55.307Z,17.22
2023-10-30T05:19:22.596Z,17.23
2023-10-30T05:21:49.644Z,17.24
2023-10-30T05:24:16.702Z,17.25
2023-10-30T05:26:43.755Z,17.25
2023-10-30T05:29:10.815Z,17.24
2023-10-30T05:31:38.158Z,17.24
2023-10-30T05:34:06.268Z,17.25
2023-10-30T05:36:33.574Z,17.26
2023-10-30T05:39:00.778Z,17.28
2023-10-30T05:41:27.931Z,17.29
2023-10-30T05:43:54.886Z,17.32
2023-10-30T05:46:21.976Z,17.35
2023-10-30T05:48:49.326Z,17.38
2023-10-30T05:51:16.532Z,17.40
2023-10-30T05:53:44.241Z,17.43
2023-10-30T05:56:11.321Z,17.43
2023-10-30T05:58:38.487Z,17.44
2023-10-30T06:01:05.767Z,17.44
2023-10-30T06:03:33.010Z,17.45
2023-10-30T06:06:00.488Z,17.45
2023-10-30T06:08:35.729Z,17.45
2023-10-30T06:11:03.737Z,17.46
2023-10-30T06:13:30.921Z,17.48
2023-10-30T06:15:57.931Z,17.48
2023-10-30T06:18:25.397Z,17.50
2023-10-30T06:20:52.491Z,17.53
2023-10-30T06:23:19.560Z,17.56
2023-10-30T06:25:46.501Z,17.57
2023-10-30T06:28:16.327Z,17.58
2023-10-30T06:30:43.629Z,17.61
2023-10-30T06:33:10.952Z,17.64
2023-10-30T06:35:37.990Z,17.67
2023-10-30T06:38:05.167Z,17.68
2023-10-30T06:40:32.242Z,17.70
2023-10-30T06:42:59.336Z,17.72
2023-10-30T06:45:26.466Z,17.73
2023-10-30T06:47:54.393Z,17.74
2023-10-30T06:50:23.825Z,17.74
2023-10-30T06:52:50.884Z,17.75
2023-10-30T06:55:17.882Z,17.76
2023-10-30T06:57:44.923Z,17.76
2023-10-30T07:00:12.764Z,17.76
2023-10-30T07:02:41.726Z,17.76
2023-10-30T07:05:09.078Z,17.75
2023-10-30T07:07:43.330Z,17.75
2023-10-30T07:10:15.687Z,17.75
2023-10-30T07:13:34.250Z,17.74
2023-10-30T07:16:01.753Z,17.74
2023-10-30T07:18:30.857Z,17.74
2023-10-30T07:20:57.995Z,17.74
2023-10-30T07:23:25.010Z,17.74
2023-10-30T07:25:52.115Z,17.76
2023-10-30T07:28:19.674Z,17.78
2023-10-30T07:30:46.855Z,17.79
2023-10-30T07:33:14.329Z,17.79
2023-10-30T07:35:41.948Z,17.79
2023-10-30T07:38:09.805Z,17.79
2023-10-30T07:40:37.478Z,17.78
2023-10-30T07:43:06.494Z,17.77
2023-10-30T07:45:49.558Z,17.76
2023-10-30T07:48:26.917Z,17.76
2023-10-30T07:50:54.599Z,17.76
2023-10-30T07:53:22.694Z,17.75
2023-10-30T07:55:52.266Z,17.76
2023-10-30T07:58:19.846Z,17.77
2023-10-30T08:00:58.400Z,17.79
2023-10-30T08:03:26.938Z,17.81
2023-10-30T08:05:54.437Z,17.82
2023-10-30T08:08:23.071Z,17.83
2023-10-30T08:10:50.472Z,17.85
2023-10-30T08:13:22.538Z,17.87
2023-10-30T08:15:49.874Z,17.88
2023-10-30T08:18:23.902Z,17.90
2023-10-30T08:20:55.052Z,17.93
2023-10-30T08:23:22.771Z,17.95
2023-10-30T08:25:50.653Z,18.00
2023-10-30T08:28:18.304Z,18.03
2023-10-30T08:30:45.710Z,18.06
2023-10-30T08:33:12.674Z,18.09
2023-10-30T08:35:39.716Z,18.09
2023-10-30T08:38:06.906Z,18.11
2023-10-30T08:40:33.961Z,18.11
2023-10-30T08:43:01.506Z,18.12
2023-10-30T08:45:28.611Z,18.13
2023-10-30T08:48:04.631Z,18.15
2023-10-30T08:50:39.562Z,18.19
2023-10-30T08:53:06.672Z,18.22
2023-10-30T08:55:33.608Z,18.26
2023-10-30T08:58:00.671Z,18.31
2023-10-30T09:00:27.902Z,18.36
2023-10-30T09:02:55.172Z,18.40
2023-10-30T09:05:22.549Z,18.45
2023-10-30T09:07:50.064Z,18.48
2023-10-30T09:10:17.419Z,18.52
2023-10-30T09:12:44.547Z,18.56
2023-10-30T09:15:14.148Z,18.62
2023-10-30T09:17:41.239Z,18.68
2023-10-30T09:20:10.179Z,18.72
2023-10-30T09:22:37.549Z,18.76
2023-10-30T09:25:06.042Z,18.79
2023-10-30T09:27:33.351Z,18.81
2023-10-30T09:30:00.466Z,18.81
2023-10-30T09:32:27.601Z,18.82
2023-10-30T09:34:54.951Z,18.80
2023-10-30T09:37:25.072Z,18.80
2023-10-30T09:39:52.481Z,18.79
2023-10-30T09:42:19.563Z,18.78
2023-10-30T09:44:46.947Z,18.76
2023-10-30T09:47:14.718Z,18.74
2023-10-30T09:49:42.436Z,18.73
2023-10-30T09:52:09.665Z,18.72
2023-10-30T09:54:36.805Z,18.72
2023-10-30T09:57:04.598Z,18.70
2023-10-30T09:59:33.180Z,18.69
2023-10-30T10:02:00.807Z,18.69
2023-10-30T10:04:29.005Z,18.70
2023-10-30T10:06:56.408Z,18.71
2023-10-30T10:09:23.684Z,18.72
2023-10-30T10:11:50.857Z,18.73
2023-10-30T10:14:21.893Z,18.74
2023-10-30T10:16:49.600Z,18.76
2023-10-30T10:19:23.779Z,18.81
2023-10-30T10:21:52.139Z,18.84
2023-10-30T10:24:29.772Z,18.88
2023-10-30T10:27:05.595Z,18.93
2023-10-30T10:29:37.056Z,18.99
2023-10-30T10:32:05.427Z,19.06
2023-10-30T10:34:34.508Z,19.12
2023-10-30T10:37:03.631Z,19.19
2023-10-30T10:40:07.247Z,19.23
2023-10-30T10:42:35.929Z,19.28
2023-10-30T10:45:04.201Z,19.31
2023-10-30T10:47:40.907Z,19.36
2023-10-30T10:50:09.558Z,19.39
2023-10-30T10:52:46.312Z,19.42
2023-10-30T10:55:19.581Z,19.43
2023-10-30T10:57:52.486Z,19.45
2023-10-30T11:00:20.434Z,19.45
2023-10-30T11:02:51.439Z,19.46
2023-10-30T11:05:31.629Z,19.46
2023-10-30T11:08:16.003Z,19.45
2023-10-30T11:10:54.786Z,19.46
2023-10-30T11:13:36.229Z,19.46
2023-10-30T11:16:19.106Z,19.45
2023-10-30T11:18:46.684Z,19.43
2023-10-30T11:21:14.569Z,19.43
2023-10-30T11:23:59.814Z,19.43
2023-10-30T11:26:42.000Z,19.44
2023-10-30T11:29:23.310Z,19.43
2023-10-30T11:31:52.026Z,19.43
2023-10-30T11:34:19.963Z,19.42
2023-10-30T11:36:49.306Z,19.42
2023-10-30T11:39:22.474Z,19.43
2023-10-30T11:41:58.858Z,19.44
2023-10-30T11:44:31.996Z,19.45
2023-10-30T11:46:59.745Z,19.46
2023-10-30T11:49:34.436Z,19.45
2023-10-30T11:52:04.399Z,19.46
2023-10-30T11:54:34.924Z,19.47
2023-10-30T11:57:02.269Z,19.48
2023-10-30T11:59:31.644Z,19.49
2023-10-30T12:02:03.121Z,19.49
2023-10-30T12:04:34.242Z,19.50
2023-10-30T12:07:04.241Z,19.51
2023-10-30T12:09:31.607Z,19.51
2023-10-30T12:11:58.944Z,19.51
2023-10-30T12:19:52.142Z,19.48
2023-10-30T12:23:13.037Z,19.44
2023-10-30T12:26:22.155Z,19.39
2023-10-30T12:28:54.961Z,19.36
2023-10-30T12:36:05.205Z,19.29
2023-10-30T12:39:25.048Z,19.26
2023-10-30T12:42:25.526Z,19.23
2023-10-30T12:44:52.985Z,19.21
2023-10-30T12:47:22.143Z,19.19
2023-10-30T12:49:50.716Z,19.18
2023-10-30T12:52:18.474Z,19.17
2023-10-30T12:54:46.199Z,19.16
2023-10-30T12:57:14.313Z,19.16
2023-10-30T12:59:43.028Z,19.15
2023-10-30T13:02:10.361Z,19.15
2023-10-30T13:04:39.199Z,19.16
2023-10-30T13:07:07.567Z,19.15
2023-10-30T13:09:35.705Z,19.16
2023-10-30T13:12:06.308Z,19.15
2023-10-30T13:14:34.289Z,19.16
2023-10-30T13:17:09.181Z,19.16
2023-10-30T13:19:38.744Z,19.14
2023-10-30T13:22:06.362Z,19.14
2023-10-30T13:24:34.094Z,19.13
2023-10-30T13:27:01.466Z,19.12
2023-10-30T13:29:31.723Z,19.12
2023-10-30T13:32:03.067Z,19.12
2023-10-30T13:34:37.148Z,19.11
2023-10-30T13:37:06.548Z,19.11
2023-10-30T13:39:36.707Z,19.12
2023-10-30T13:42:05.265Z,19.13
2023-10-30T13:44:33.453Z,19.12
2023-10-30T13:47:01.136Z,19.13
2023-10-30T13:49:45.195Z,19.14
2023-10-30T13:52:19.765Z,19.15
2023-10-30T13:55:06.517Z,19.14
2023-10-30T13:57:35.341Z,19.13
2023-10-30T14:00:10.584Z,19.13
2023-10-30T14:02:40.193Z,19.13
2023-10-30T14:05:37.575Z,19.13
2023-10-30T14:08:07.750Z,19.13
2023-10-30T14:10:45.730Z,19.11
2023-10-30T14:13:29.136Z,19.12
2023-10-30T14:20:43.960Z,19.18
2023-10-30T14:23:37.533Z,19.21
2023-10-30T14:30:08.693Z,19.26
2023-10-30T14:32:58.429Z,19.24
2023-10-30T14:40:01.870Z,19.20
2023-10-30T14:50:29.593Z,19.04
2023-10-30T14:53:54.189Z,19.01
2023-10-30T14:56:51.432Z,18.97
2023-10-30T15:04:32.770Z,18.85
2023-10-30T15:08:04.136Z,18.79
2023-10-30T15:10:45.495Z,18.74
2023-10-30T15:13:15.607Z,18.71
2023-10-30T15:15:44.259Z,18.69
2023-10-30T15:18:12.386Z,18.66
2023-10-30T15:20:40.923Z,18.62
2023-10-30T15:23:16.290Z,18.57
2023-10-30T15:26:03.897Z,18.51
2023-10-30T15:28:34.538Z,18.46
2023-10-30T15:31:05.663Z,18.41
2023-10-30T15:33:36.788Z,18.35
2023-10-30T15:43:57.697Z,18.19
2023-10-30T15:46:25.279Z,18.15
2023-10-30T15:48:52.795Z,18.11
2023-10-30T15:51:20.311Z,18.09
2023-10-30T15:58:50.546Z,18.04
2023-10-30T16:01:19.973Z,18.04
2023-10-30T16:03:48.235Z,18.03
2023-10-30T16:06:16.462Z,18.02
2023-10-30T16:08:48.148Z,17.99
2023-10-30T16:13:49.570Z,17.96
2023-10-30T16:16:19.338Z,17.95
2023-10-30T16:21:17.468Z,17.90
2023-10-30T16:23:44.896Z,17.87
2023-10-30T16:26:12.423Z,17.84
2023-10-30T16:28:39.845Z,17.83
2023-10-30T16:31:07.134Z,17.83
2023-10-30T16:33:34.659Z,17.85
2023-10-30T16:36:05.547Z,17.85
2023-10-30T16:38:34.235Z,17.85
2023-10-30T16:41:01.704Z,17.86
2023-10-30T16:43:29.308Z,17.87
2023-10-30T16:45:56.810Z,17.89
2023-10-30T16:48:24.780Z,17.89
2023-10-30T16:50:54.923Z,17.87
2023-10-30T16:53:22.304Z,17.85
2023-10-30T16:55:54.247Z,17.83
2023-10-30T16:58:21.553Z,17.81
2023-10-30T17:00:50.788Z,17.79
2023-10-30T17:03:19.004Z,17.78
2023-10-30T17:05:46.325Z,17.77
2023-10-30T17:08:13.517Z,17.75
2023-10-30T17:10:40.527Z,17.74
2023-10-30T17:13:09.666Z,17.73
2023-10-30T17:15:36.947Z,17.70
2023-10-30T17:18:04.695Z,17.67
2023-10-30T17:20:31.890Z,17.64
2023-10-30T17:22:59.136Z,17.61
2023-10-30T17:25:26.313Z,17.58
2023-10-30T17:27:53.385Z,17.55
2023-10-30T17:30:20.539Z,17.51
2023-10-30T17:32:48.236Z,17.47
2023-10-30T17:35:18.787Z,17.44
2023-10-30T17:37:45.726Z,17.39
2023-10-30T17:40:15.736Z,17.34
2023-10-30T17:42:42.928Z,17.30
2023-10-30T17:45:10.260Z,17.24
2023-10-30T17:47:37.677Z,17.19
2023-10-30T17:50:07.637Z,17.13
2023-10-30T17:52:35.148Z,17.07
2023-10-30T17:55:02.944Z,17.02
2023-10-30T17:57:30.290Z,16.96
2023-10-30T17:59:57.487Z,16.94
2023-10-30T18:02:24.862Z,16.95
2023-10-30T18:04:52.679Z,16.96
2023-10-30T18:07:19.896Z,16.99
2023-10-30T18:09:47.427Z,17.03
2023-10-30T18:12:15.728Z,17.05
2023-10-30T18:14:42.812Z,17.06
2023-10-30T18:17:10.859Z,17.06
2023-10-30T18:19:38.510Z,17.06
2023-10-30T18:22:06.712Z,17.06
2023-10-30T18:24:34.188Z,17.04
2023-10-30T18:27:01.832Z,17.04
2023-10-30T18:29:29.620Z,17.02
2023-10-30T18:31:58.512Z,16.98
2023-10-30T18:34:28.350Z,16.94
2023-10-30T18:36:55.423Z,16.91
2023-10-30T18:39:22.678Z,16.87
2023-10-30T18:41:49.769Z,16.83
2023-10-30T18:44:18.743Z,16.78
2023-10-30T18:46:48.552Z,16.73
2023-10-30T18:49:15.485Z,16.66
2023-10-30T18:51:44.024Z,16.59
2023-10-30T18:54:14.090Z,16.53
2023-10-30T18:56:41.461Z,16.46
2023-10-30T18:59:08.453Z,16.38
2023-10-30T19:01:35.988Z,16.30
2023-10-30T19:04:05.370Z,16.23
2023-10-30T19:06:35.284Z,16.17
2023-10-30T19:09:02.230Z,16.11
2023-10-30T19:11:32.025Z,16.06
2023-10-30T19:13:59.109Z,16.00
2023-10-30T19:16:28.998Z,15.93
2023-10-30T19:18:58.997Z,15.86
2023-10-30T19:21:29.257Z,15.80
2023-10-30T19:23:59.073Z,15.73
2023-10-30T19:26:30.153Z,15.65
2023-10-30T19:28:57.187Z,15.58
2023-10-30T19:31:27.940Z,15.51
2023-10-30T19:33:57.885Z,15.44
2023-10-30T19:36:27.951Z,15.37
2023-10-30T19:38:54.932Z,15.31
2023-10-30T19:41:22.117Z,15.26
2023-10-30T19:43:49.342Z,15.20
2023-10-30T19:46:21.716Z,15.15
2023-10-30T19:48:53.244Z,15.09
2023-10-30T19:51:20.478Z,15.05
2023-10-30T19:53:47.886Z,14.99
2023-10-30T19:56:18.253Z,14.93
2023-10-30T19:58:45.693Z,14.88
2023-10-30T20:01:17.193Z,14.85
2023-10-30T20:03:44.667Z,14.80
2023-10-30T20:06:11.806Z,14.77
2023-10-30T20:08:38.975Z,14.75
2023-10-30T20:11:06.059Z,14.72
2023-10-30T20:13:33.495Z,14.71
2023-10-30T20:16:00.756Z,14.70
2023-10-30T20:18:27.844Z,14.70
2023-10-30T20:20:55.022Z,14.70
2023-10-30T20:23:22.674Z,14.72
2023-10-30T20:25:50.540Z,14.73
2023-10-30T20:28:18.113Z,14.72
2023-10-30T20:30:49.179Z,14.72
2023-10-30T20:33:16.439Z,14.70
2023-10-30T20:35:43.400Z,14.68
2023-10-30T20:38:10.408Z,14.67
2023-10-30T20:40:38.220Z,14.65
2023-10-30T20:43:05.738Z,14.63
2023-10-30T20:45:32.855Z,14.61
2023-10-30T20:48:00.373Z,14.60
2023-10-30T20:50:39.985Z,14.61
2023-10-30T20:53:07.022Z,14.62
2023-10-30T20:55:34.431Z,14.63
2023-10-30T20:58:02.524Z,14.62
2023-10-30T21:00:29.804Z,14.60
2023-10-30T21:02:56.846Z,14.57
2023-10-30T21:05:24.046Z,14.54
2023-10-30T21:07:51.246Z,14.52
2023-10-30T21:10:18.958Z,14.53
2023-10-30T21:12:46.131Z,14.54
2023-10-30T21:15:13.219Z,14.58
2023-10-30T21:17:40.566Z,14.61
2023-10-30T21:20:07.942Z,14.64
2023-10-30T21:22:35.176Z,14.67
2023-10-30T21:25:02.239Z,14.70
2023-10-30T21:27:29.578Z,14.73
2023-10-30T21:29:56.620Z,14.75
2023-10-30T21:32:23.625Z,14.74
2023-10-30T21:34:50.999Z,14.72
2023-10-30T21:37:18.367Z,14.70
2023-10-30T21:39:45.565Z,14.67
2023-10-30T21:42:12.693Z,14.64
2023-10-30T21:44:39.769Z,14.61
2023-10-30T21:47:07.059Z,14.58
2023-10-30T21:49:34.516Z,14.55
2023-10-30T21:52:01.713Z,14.52
2023-10-30T21:54:28.846Z,14.51
2023-10-30T21:56:56.080Z,14.51
2023-10-30T21:59:23.079Z,14.51
2023-10-30T22:01:50.144Z,14.53
2023-10-30T22:04:17.316Z,14.55
2023-10-30T22:06:44.419Z,14.57
2023-10-30T22:09:11.806Z,14.58
2023-10-30T22:11:39.043Z,14.60
2023-10-30T22:14:06.120Z,14.62
2023-10-30T22:16:33.324Z,14.64
2023-10-30T22:19:00.494Z,14.65
2023-10-30T22:21:27.634Z,14.67
2023-10-30T22:23:54.528Z,14.68
2023-10-30T22:26:21.727Z,14.68
2023-10-30T22:28:49.285Z,14.68
2023-10-30T22:31:16.649Z,14.69
2023-10-30T22:33:43.775Z,14.69
2023-10-30T22:36:10.895Z,14.69
2023-10-30T22:38:38.030Z,14.69
2023-10-30T22:41:05.310Z,14.71
2023-10-30T22:43:32.446Z,14.74
2023-10-30T22:45:59.624Z,14.79
2023-10-30T22:48:27.118Z,14.85
2023-10-30T22:50:54.482Z,14.90
2023-10-30T22:53:21.637Z,14.95
2023-10-30T22:55:49.552Z,15.01
2023-10-30T22:58:16.888Z,15.06
2023-10-30T23:00:44.646Z,15.10
2023-10-30T23:03:11.749Z,15.14
2023-10-30T23:05:39.291Z,15.19
2023-10-30T23:08:06.726Z,15.22
2023-10-30T23:10:33.848Z,15.25
2023-10-30T23:13:01.025Z,15.28
2023-10-30T23:15:27.960Z,15.31
2023-10-30T23:17:55.101Z,15.36
2023-10-30T23:20:25.550Z,15.40
2023-10-30T23:22:54.461Z,15.41
2023-10-30T23:25:21.567Z,15.42
2023-10-30T23:27:48.646Z,15.44
2023-10-30T23:30:15.874Z,15.45
2023-10-30T23:32:43.496Z,15.47
2023-10-30T23:35:11.704Z,15.49
2023-10-30T23:37:38.756Z,15.52
2023-10-30T23:40:06.458Z,15.54
2023-10-30T23:42:33.627Z,15.57
2023-10-30T23:45:00.770Z,15.58
2023-10-30T23:47:27.964Z,15.60
2023-10-30T23:49:55.040Z,15.62
2023-10-30T23:52:22.373Z,15.64
2023-10-30T23:54:49.491Z,15.65
2023-10-30T23:57:16.577Z,15.65
2023-10-30T23:59:43.703Z,15.66
